Skip Navigation Links Skip Navigation Links

Current Weather

Ankeny Regional, Ankeny, Iowa

For information only: do not use for flight planning or navigation.
Latest weather
Observation time Tuesday, October 19, 2021 3:35 AM CDT
Local time Tuesday, October 19, 2021 3:42 AM CDT
Flight conditions Visual Meteorological Conditions
Winds
Wind direction South-Southeast (160°)
Wind speed 5 mph
Visibility 10 mi.
Sky condition
Ceiling 11,000 ft. broken clouds
Cloud layer broken clouds 11,000 ft.
Temperature 54°F
Dewpoint 45°F
Altimeter 30.00 in.Hg
Derived measurements
Relative humidity 71%
Density altitude 607 ft.
Remarks
Fully automated report.
Automated weather observing station with precipitation discriminator.
METAR KIKV 190835Z AUTO 16004KT 10SM BKN110 12/07 A3000 RMK AO2

Settings

Location code

InnerDrive.Weather 4.0.6770.0 Release CLR 4.0.30319.42000
Copyright ©2018 Inner Drive Technology. All rights reserved. Portions Copyright ©1986-2018 David Braverman.

Find weather

Site navigation


Skip Navigation Links

Place info

Page info

PayPal - The safer, easier way to pay online!

Return home.

Copyright ©2021 Inner Drive Technology. Purveyors of fine, hand-crafted computer software. Page printed 2021-10-19T08:42:21 UTC.